Joe Foss Field Airport
KFSD : rendu visible

Aérodrome :











RETROUVEZ-NOUS SUR...

 
LOGIN :

S'inscrire | Disclaimer

   EN    FR    IT 

 









Légende :    VFR   VFR Marginal   IFR   IFR Intensif   IFR Très Intensif
Visi : 
Plafond : 
>= 8 km
>= 3000ft
5 à 8 km
1000 à 3000 ft
1500m à 5 km
500 à 1000 ft
800 à 1500m
200 à 500 ft
< 800m
< 200 ft
Symboles :   Orages  Brouillard  Fortes neiges  Fortes précipitations  Vent > 20 kt






- Altitude de l'aérodrome : 1429 ft
- Code IATA : FSD


KFSD - Joe Foss Field

DERNIER METAR :
  • 100756Z AUTO 30013KT 10SM BKN018 BKN033 OVC065 M07/M12 A3004 RMK AO2 SNB01E14 SLP201 P0000 T10721117 $

METARs EXPIRÉS :
  • 100739Z AUTO 30011KT 10SM BKN031 OVC060 M07/M12 A3004 RMK AO2 SNB01E14 P0000 T10721117 $
  • 100656Z AUTO 28006KT 10SM OVC029 M09/M13 A3002 RMK AO2 SLP195 T10941128 $
  • 100644Z AUTO 27006KT 10SM OVC029 M10/M13 A3001 RMK AO2 T11001128 $
  • 100556Z 00000KT 10SM BKN033 OVC042 M11/M14 A2999 RMK AO2 SLP187 LAST T11111139 11111 21139 410171139 53010 $

TAF KFSD
Valide du 10 à 07h jusqu'au 11 à 06h UTC


100726Z 1007/1106 29007KT P6SM BKN028
FM101000 32013G23KT P6SM BKN050
FM101800 30007KT P6SM SCT150
FM110200 VRB04KT P6SM BKN030
PROB30 1102/1106 2SM -SN OVC015



MET'MAP, la Météo Aéronautique d'un coup d'oeil ! - Copyright ORBIFLY Décembre 2007 - Disclaimer

ORBIFLY MET'MAP TEAM :

Programmation & Développement : Alexandra Zaïnal
Sur une idée originale de : Baudouin d'Aumeries
Assistance à la programmation : Marc-Olivier Méhu
Soutien technique & logistique : Manuel Goepfert

Contact : metmap@orbifly.com




SOURCES & CREDITS :

   NOAA       Earth
Advisory